Rocky Mount, VA (24151)

8:43 AM EDT on August 05, 2015 (GMT -0400)
Doe Run | | Change Station
CLOSE
Current Station
Personal Weather Station
Location: Rocky Mount, VA
Elevation: 1099 ft
Nearby Weather Stations

Elev 1099 ft 36.97 °N, 79.85 °W | Updated 30 seconds ago

Partly Cloudy
Partly Cloudy
83.1 °F
Feels Like 87 °F
N
0.0
Wind Variable Wind from NNE
Gusts 0.0 mph

Today
High -- | Low -- °F
--% Chance of Precip.
Yesterday
High -- | Low -- °F
Precip. -- in
6:27 AM 8:22 PM
Waning Gibbous, 67% visible
Pressure 30.04 in
Visibility 10.0 miles
Clouds Few 4000 ft
Few 9500 ft
Scattered Clouds 15000 ft
Mostly Cloudy 25000 ft
Heat Index 87 °F
Dew Point 70 °F
Humidity 64%
Rainfall 0.00 in
Snow Depth Not available.
UV 1 out of 12
Pollen 7.10 out of 12
Air Quality Not available.
Flu Activity Not available.
METAR KROA 051154Z 28007KT 10SM FEW040 FEW095 SCT150 BKN250 23/18 A3008 RMK AO2 SLP171 T02330183 10256 20222 51018

More Conditions Fewer Conditions

Pressure 30.04 in
Visibility 10.0 miles
Clouds Few 4000 ft
Few 9500 ft
Scattered Clouds 15000 ft
Mostly Cloudy 25000 ft
Heat Index 87 °F
Dew Point 70 °F
Humidity 64%
Rainfall 0.00 in
Snow Depth Not available.
UV 1 out of 12
Pollen 7.10 out of 12
Air Quality Not available.
Flu Activity Not available.
METAR KROA 051154Z 28007KT 10SM FEW040 FEW095 SCT150 BKN250 23/18 A3008 RMK AO2 SLP171 T02330183 10256 20222 51018

More Conditions Fewer Conditions

10-Day Weather Forecast

×

Almanac

Astronomy

Aug. 05, 2015 Rise Set
Actual Time
Civil Twilight
Nautical Twilight
Astronomical Twilight
Moon
Length of Visible Light
Length of Day
Tomorrow will be .
, % of the Moon is Illuminated

Today's Extremes

State Highs State Lows

Community

WunderPhotos

Upload Photos

1,844,175 photos uploaded!

WunderBlogs® & News

Nearby

Air Quality

  Air Quality AQ Index Pollutant
Not available.

Snow Depth

Station Depth Elevation

Earthquake Activity

City Distance Mag. Time & Date
Minimum magnitude displayed is 2.5.

Coastal Water Temperatures

Place Temperature

Stations

Nearby Weather Stations

Station Location Temp. Windchill Dew Point Humidity Wind Precip. Elev Updated Type